sensor_id;sensor_type;location;lat;lon;timestamp;pressure;altitude;pressure_sealevel;temperature
19040;BMP180;9652;49.014;12.052;2023-03-29T00:02:24;98371.00;;;7.00
19040;BMP180;9652;49.014;12.052;2023-03-29T00:04:55;98353.00;;;7.00
19040;BMP180;9652;49.014;12.052;2023-03-29T00:07:22;98380.00;;;7.10
19040;BMP180;9652;49.014;12.052;2023-03-29T00:09:50;98367.00;;;7.00
19040;BMP180;9652;49.014;12.052;2023-03-29T00:12:18;98369.00;;;7.00
19040;BMP180;9652;49.014;12.052;2023-03-29T00:14:45;98372.00;;;7.10
19040;BMP180;9652;49.014;12.052;2023-03-29T00:17:13;98350.00;;;7.00
19040;BMP180;9652;49.014;12.052;2023-03-29T00:19:42;98375.00;;;7.00
19040;BMP180;9652;49.014;12.052;2023-03-29T00:22:10;98365.00;;;7.10
19040;BMP180;9652;49.014;12.052;2023-03-29T00:24:37;98365.00;;;7.10
19040;BMP180;9652;49.014;12.052;2023-03-29T00:27:04;98336.00;;;7.10
19040;BMP180;9652;49.014;12.052;2023-03-29T00:29:32;98361.00;;;7.10
19040;BMP180;9652;49.014;12.052;2023-03-29T00:31:59;98364.00;;;7.10
19040;BMP180;9652;49.014;12.052;2023-03-29T00:34:28;98266.00;;;7.10
19040;BMP180;9652;49.014;12.052;2023-03-29T00:36:57;98349.00;;;7.10
19040;BMP180;9652;49.014;12.052;2023-03-29T00:39:25;98363.00;;;7.10
19040;BMP180;9652;49.014;12.052;2023-03-29T00:41:54;98360.00;;;7.10
19040;BMP180;9652;49.014;12.052;2023-03-29T00:45:00;98366.00;;;7.10
19040;BMP180;9652;49.014;12.052;2023-03-29T00:47:32;98357.00;;;7.10
19040;BMP180;9652;49.014;12.052;2023-03-29T00:50:08;98352.00;;;7.10
19040;BMP180;9652;49.014;12.052;2023-03-29T00:52:41;98355.00;;;7.10
19040;BMP180;9652;49.014;12.052;2023-03-29T00:55:16;98354.00;;;7.20
19040;BMP180;9652;49.014;12.052;2023-03-29T00:57:46;98377.00;;;7.20
19040;BMP180;9652;49.014;12.052;2023-03-29T01:00:19;98369.00;;;7.20
19040;BMP180;9652;49.014;12.052;2023-03-29T01:02:52;98335.00;;;7.20
19040;BMP180;9652;49.014;12.052;2023-03-29T01:05:29;98337.00;;;7.20
19040;BMP180;9652;49.014;12.052;2023-03-29T01:08:02;98320.00;;;7.20
19040;BMP180;9652;49.014;12.052;2023-03-29T01:10:38;98357.00;;;7.20
19040;BMP180;9652;49.014;12.052;2023-03-29T01:13:10;98361.00;;;7.20
19040;BMP180;9652;49.014;12.052;2023-03-29T01:15:42;98353.00;;;7.20
19040;BMP180;9652;49.014;12.052;2023-03-29T01:18:11;98348.00;;;7.20
19040;BMP180;9652;49.014;12.052;2023-03-29T01:20:54;98347.00;;;7.20
19040;BMP180;9652;49.014;12.052;2023-03-29T01:23:55;98345.00;;;7.20
19040;BMP180;9652;49.014;12.052;2023-03-29T01:26:42;98334.00;;;7.10
19040;BMP180;9652;49.014;12.052;2023-03-29T01:29:20;98331.00;;;7.20
19040;BMP180;9652;49.014;12.052;2023-03-29T01:31:56;98335.00;;;7.20
19040;BMP180;9652;49.014;12.052;2023-03-29T01:34:30;98314.00;;;7.20
19040;BMP180;9652;49.014;12.052;2023-03-29T01:37:07;98129.00;;;7.20
19040;BMP180;9652;49.014;12.052;2023-03-29T01:39:35;98315.00;;;7.00
19040;BMP180;9652;49.014;12.052;2023-03-29T01:42:15;98293.00;;;7.10
19040;BMP180;9652;49.014;12.052;2023-03-29T01:44:55;98311.00;;;7.10
19040;BMP180;9652;49.014;12.052;2023-03-29T01:47:29;98296.00;;;7.10
19040;BMP180;9652;49.014;12.052;2023-03-29T01:50:09;98295.00;;;7.10
19040;BMP180;9652;49.014;12.052;2023-03-29T01:52:46;98290.00;;;7.10
19040;BMP180;9652;49.014;12.052;2023-03-29T01:55:21;98280.00;;;7.10
19040;BMP180;9652;49.014;12.052;2023-03-29T01:57:52;98282.00;;;7.10
19040;BMP180;9652;49.014;12.052;2023-03-29T02:00:26;98274.00;;;7.10
19040;BMP180;9652;49.014;12.052;2023-03-29T02:02:58;98264.00;;;7.10
19040;BMP180;9652;49.014;12.052;2023-03-29T02:05:28;98284.00;;;7.10
19040;BMP180;9652;49.014;12.052;2023-03-29T02:07:59;98280.00;;;7.10
19040;BMP180;9652;49.014;12.052;2023-03-29T02:10:28;98267.00;;;7.10
19040;BMP180;9652;49.014;12.052;2023-03-29T02:12:55;98251.00;;;7.10
19040;BMP180;9652;49.014;12.052;2023-03-29T02:15:25;98242.00;;;7.10
19040;BMP180;9652;49.014;12.052;2023-03-29T02:17:52;98243.00;;;7.10
19040;BMP180;9652;49.014;12.052;2023-03-29T02:20:26;98256.00;;;7.10
19040;BMP180;9652;49.014;12.052;2023-03-29T02:23:03;98241.00;;;7.10
19040;BMP180;9652;49.014;12.052;2023-03-29T02:25:33;98243.00;;;7.10
19040;BMP180;9652;49.014;12.052;2023-03-29T02:28:03;98237.00;;;7.10
19040;BMP180;9652;49.014;12.052;2023-03-29T02:30:42;98250.00;;;7.10
19040;BMP180;9652;49.014;12.052;2023-03-29T02:33:15;98237.00;;;7.10
19040;BMP180;9652;49.014;12.052;2023-03-29T02:35:53;98232.00;;;7.10
19040;BMP180;9652;49.014;12.052;2023-03-29T02:38:24;98242.00;;;7.00
19040;BMP180;9652;49.014;12.052;2023-03-29T02:40:54;98255.00;;;7.00
19040;BMP180;9652;49.014;12.052;2023-03-29T02:43:24;98227.00;;;7.00
19040;BMP180;9652;49.014;12.052;2023-03-29T02:45:54;98236.00;;;7.00
19040;BMP180;9652;49.014;12.052;2023-03-29T02:48:26;98234.00;;;7.00
19040;BMP180;9652;49.014;12.052;2023-03-29T02:50:58;98207.00;;;6.90
19040;BMP180;9652;49.014;12.052;2023-03-29T02:53:31;98234.00;;;6.90
19040;BMP180;9652;49.014;12.052;2023-03-29T02:56:00;98233.00;;;6.90
19040;BMP180;9652;49.014;12.052;2023-03-29T02:58:28;98225.00;;;6.90
19040;BMP180;9652;49.014;12.052;2023-03-29T03:00:59;98240.00;;;6.90
19040;BMP180;9652;49.014;12.052;2023-03-29T03:03:27;98240.00;;;6.90
19040;BMP180;9652;49.014;12.052;2023-03-29T03:05:55;98233.00;;;6.90
19040;BMP180;9652;49.014;12.052;2023-03-29T03:08:22;98235.00;;;6.80
19040;BMP180;9652;49.014;12.052;2023-03-29T03:10:50;98225.00;;;6.20
19040;BMP180;9652;49.014;12.052;2023-03-29T03:13:18;98213.00;;;6.80
19040;BMP180;9652;49.014;12.052;2023-03-29T03:15:45;98215.00;;;6.70
19040;BMP180;9652;49.014;12.052;2023-03-29T03:18:15;98191.00;;;6.70
19040;BMP180;9652;49.014;12.052;2023-03-29T03:20:42;98220.00;;;6.70
19040;BMP180;9652;49.014;12.052;2023-03-29T03:23:11;98220.00;;;6.70
19040;BMP180;9652;49.014;12.052;2023-03-29T03:25:39;98114.00;;;6.60
19040;BMP180;9652;49.014;12.052;2023-03-29T03:28:06;98155.00;;;6.60
19040;BMP180;9652;49.014;12.052;2023-03-29T03:30:33;98204.00;;;6.50
19040;BMP180;9652;49.014;12.052;2023-03-29T03:33:27;98215.00;;;6.50
19040;BMP180;9652;49.014;12.052;2023-03-29T03:36:28;98203.00;;;6.50
19040;BMP180;9652;49.014;12.052;2023-03-29T03:38:56;98152.00;;;6.50
19040;BMP180;9652;49.014;12.052;2023-03-29T03:41:24;98209.00;;;6.40
19040;BMP180;9652;49.014;12.052;2023-03-29T03:43:52;98194.00;;;6.40
19040;BMP180;9652;49.014;12.052;2023-03-29T03:46:19;98193.00;;;6.40
19040;BMP180;9652;49.014;12.052;2023-03-29T03:48:49;98202.00;;;6.30
19040;BMP180;9652;49.014;12.052;2023-03-29T03:51:21;98200.00;;;6.30
19040;BMP180;9652;49.014;12.052;2023-03-29T03:53:50;98191.00;;;6.30
19040;BMP180;9652;49.014;12.052;2023-03-29T03:56:35;98181.00;;;6.20
19040;BMP180;9652;49.014;12.052;2023-03-29T03:59:31;98185.00;;;6.10
19040;BMP180;9652;49.014;12.052;2023-03-29T04:02:02;98190.00;;;6.10
19040;BMP180;9652;49.014;12.052;2023-03-29T04:04:33;98173.00;;;6.10
19040;BMP180;9652;49.014;12.052;2023-03-29T04:07:17;98195.00;;;6.00
19040;BMP180;9652;49.014;12.052;2023-03-29T04:10:07;98188.00;;;6.00
19040;BMP180;9652;49.014;12.052;2023-03-29T04:13:05;98191.00;;;6.00
19040;BMP180;9652;49.014;12.052;2023-03-29T04:15:42;98190.00;;;6.00
19040;BMP180;9652;49.014;12.052;2023-03-29T04:18:11;98175.00;;;6.00
19040;BMP180;9652;49.014;12.052;2023-03-29T04:20:47;98186.00;;;6.00
19040;BMP180;9652;49.014;12.052;2023-03-29T04:23:18;98168.00;;;6.00
19040;BMP180;9652;49.014;12.052;2023-03-29T04:25:45;98165.00;;;6.00
19040;BMP180;9652;49.014;12.052;2023-03-29T04:28:45;98184.00;;;6.00
19040;BMP180;9652;49.014;12.052;2023-03-29T04:31:20;98181.00;;;6.00
19040;BMP180;9652;49.014;12.052;2023-03-29T04:34:06;98179.00;;;6.00
19040;BMP180;9652;49.014;12.052;2023-03-29T04:36:35;98167.00;;;5.90
19040;BMP180;9652;49.014;12.052;2023-03-29T04:39:06;98129.00;;;5.90
19040;BMP180;9652;49.014;12.052;2023-03-29T04:41:34;98155.00;;;5.90
19040;BMP180;9652;49.014;12.052;2023-03-29T04:44:23;98164.00;;;5.90
19040;BMP180;9652;49.014;12.052;2023-03-29T04:46:50;98169.00;;;5.90
19040;BMP180;9652;49.014;12.052;2023-03-29T04:49:26;98135.00;;;5.90
19040;BMP180;9652;49.014;12.052;2023-03-29T04:51:55;98164.00;;;5.90
19040;BMP180;9652;49.014;12.052;2023-03-29T04:54:26;98161.00;;;5.90
19040;BMP180;9652;49.014;12.052;2023-03-29T04:57:26;98169.00;;;5.80
19040;BMP180;9652;49.014;12.052;2023-03-29T05:00:18;98169.00;;;5.80
19040;BMP180;9652;49.014;12.052;2023-03-29T05:03:13;98165.00;;;5.80
19040;BMP180;9652;49.014;12.052;2023-03-29T05:05:53;98168.00;;;5.80
19040;BMP180;9652;49.014;12.052;2023-03-29T05:08:22;98165.00;;;5.90
19040;BMP180;9652;49.014;12.052;2023-03-29T05:11:10;98172.00;;;5.90
19040;BMP180;9652;49.014;12.052;2023-03-29T05:13:38;98159.00;;;5.90
19040;BMP180;9652;49.014;12.052;2023-03-29T05:16:06;98154.00;;;5.90
19040;BMP180;9652;49.014;12.052;2023-03-29T05:18:35;98120.00;;;6.00
19040;BMP180;9652;49.014;12.052;2023-03-29T05:21:04;98150.00;;;6.00
19040;BMP180;9652;49.014;12.052;2023-03-29T05:23:34;98125.00;;;6.00
19040;BMP180;9652;49.014;12.052;2023-03-29T05:26:37;98100.00;;;6.10
19040;BMP180;9652;49.014;12.052;2023-03-29T05:29:07;98134.00;;;6.10
19040;BMP180;9652;49.014;12.052;2023-03-29T05:31:35;98162.00;;;6.10
19040;BMP180;9652;49.014;12.052;2023-03-29T05:34:03;98107.00;;;6.10
19040;BMP180;9652;49.014;12.052;2023-03-29T05:36:34;98131.00;;;6.20
19040;BMP180;9652;49.014;12.052;2023-03-29T05:39:05;98144.00;;;6.20
19040;BMP180;9652;49.014;12.052;2023-03-29T05:41:32;98148.00;;;6.20
19040;BMP180;9652;49.014;12.052;2023-03-29T05:44:22;98129.00;;;6.30
19040;BMP180;9652;49.014;12.052;2023-03-29T05:46:54;98137.00;;;6.20
19040;BMP180;9652;49.014;12.052;2023-03-29T05:49:22;98135.00;;;6.20
19040;BMP180;9652;49.014;12.052;2023-03-29T05:52:10;98131.00;;;6.30
19040;BMP180;9652;49.014;12.052;2023-03-29T05:54:39;98133.00;;;6.30
19040;BMP180;9652;49.014;12.052;2023-03-29T05:57:07;98142.00;;;6.30
19040;BMP180;9652;49.014;12.052;2023-03-29T05:59:35;98147.00;;;6.30
19040;BMP180;9652;49.014;12.052;2023-03-29T06:02:03;98143.00;;;6.30
19040;BMP180;9652;49.014;12.052;2023-03-29T06:04:34;98115.00;;;6.30
19040;BMP180;9652;49.014;12.052;2023-03-29T06:07:30;98126.00;;;6.30
19040;BMP180;9652;49.014;12.052;2023-03-29T06:10:23;98136.00;;;6.30
19040;BMP180;9652;49.014;12.052;2023-03-29T06:12:57;98131.00;;;6.40
19040;BMP180;9652;49.014;12.052;2023-03-29T06:15:25;98136.00;;;6.40
19040;BMP180;9652;49.014;12.052;2023-03-29T06:18:00;98126.00;;;6.50
19040;BMP180;9652;49.014;12.052;2023-03-29T06:20:29;98106.00;;;6.50
19040;BMP180;9652;49.014;12.052;2023-03-29T06:23:02;98127.00;;;6.50
19040;BMP180;9652;49.014;12.052;2023-03-29T06:25:30;98127.00;;;6.60
19040;BMP180;9652;49.014;12.052;2023-03-29T06:27:57;98108.00;;;6.60
19040;BMP180;9652;49.014;12.052;2023-03-29T06:30:24;98118.00;;;6.60
19040;BMP180;9652;49.014;12.052;2023-03-29T06:32:54;98126.00;;;6.70
19040;BMP180;9652;49.014;12.052;2023-03-29T06:35:47;98130.00;;;6.70
19040;BMP180;9652;49.014;12.052;2023-03-29T06:38:19;98126.00;;;6.80
19040;BMP180;9652;49.014;12.052;2023-03-29T06:41:07;98125.00;;;6.90
19040;BMP180;9652;49.014;12.052;2023-03-29T06:43:59;98129.00;;;6.90
19040;BMP180;9652;49.014;12.052;2023-03-29T06:46:35;98124.00;;;7.00
19040;BMP180;9652;49.014;12.052;2023-03-29T06:49:06;98121.00;;;7.00
19040;BMP180;9652;49.014;12.052;2023-03-29T06:51:44;98133.00;;;7.10
19040;BMP180;9652;49.014;12.052;2023-03-29T06:54:12;98048.00;;;7.20
19040;BMP180;9652;49.014;12.052;2023-03-29T06:56:49;98145.00;;;7.30
19040;BMP180;9652;49.014;12.052;2023-03-29T06:59:18;98124.00;;;7.30
19040;BMP180;9652;49.014;12.052;2023-03-29T07:02:09;98132.00;;;7.40
19040;BMP180;9652;49.014;12.052;2023-03-29T07:04:46;98116.00;;;7.40
19040;BMP180;9652;49.014;12.052;2023-03-29T07:07:42;98145.00;;;7.50
19040;BMP180;9652;49.014;12.052;2023-03-29T07:10:54;98146.00;;;7.50
19040;BMP180;9652;49.014;12.052;2023-03-29T07:13:41;98140.00;;;7.40
19040;BMP180;9652;49.014;12.052;2023-03-29T07:16:12;98132.00;;;7.50
19040;BMP180;9652;49.014;12.052;2023-03-29T07:19:07;98083.00;;;7.50
19040;BMP180;9652;49.014;12.052;2023-03-29T07:21:58;98137.00;;;7.50
19040;BMP180;9652;49.014;12.052;2023-03-29T07:24:42;98156.00;;;7.60
19040;BMP180;9652;49.014;12.052;2023-03-29T07:27:09;98133.00;;;7.60
19040;BMP180;9652;49.014;12.052;2023-03-29T07:29:37;98157.00;;;7.70
19040;BMP180;9652;49.014;12.052;2023-03-29T07:32:04;98147.00;;;7.80
19040;BMP180;9652;49.014;12.052;2023-03-29T07:34:40;98156.00;;;7.90
19040;BMP180;9652;49.014;12.052;2023-03-29T07:37:13;98134.00;;;7.90
19040;BMP180;9652;49.014;12.052;2023-03-29T07:39:42;98165.00;;;8.00
19040;BMP180;9652;49.014;12.052;2023-03-29T07:42:32;98151.00;;;8.10
19040;BMP180;9652;49.014;12.052;2023-03-29T07:45:04;98141.00;;;8.20
19040;BMP180;9652;49.014;12.052;2023-03-29T07:47:38;98149.00;;;8.20
19040;BMP180;9652;49.014;12.052;2023-03-29T07:50:07;98156.00;;;8.30
19040;BMP180;9652;49.014;12.052;2023-03-29T07:52:36;98139.00;;;8.30
19040;BMP180;9652;49.014;12.052;2023-03-29T07:55:06;98141.00;;;8.40
19040;BMP180;9652;49.014;12.052;2023-03-29T07:57:51;98159.00;;;8.50
19040;BMP180;9652;49.014;12.052;2023-03-29T08:00:21;98159.00;;;8.50
19040;BMP180;9652;49.014;12.052;2023-03-29T08:03:14;98150.00;;;8.60
19040;BMP180;9652;49.014;12.052;2023-03-29T08:05:42;98123.00;;;8.70
19040;BMP180;9652;49.014;12.052;2023-03-29T08:08:11;98148.00;;;8.70
19040;BMP180;9652;49.014;12.052;2023-03-29T08:10:53;98138.00;;;8.70
19040;BMP180;9652;49.014;12.052;2023-03-29T08:13:28;98141.00;;;8.80
19040;BMP180;9652;49.014;12.052;2023-03-29T08:16:17;98146.00;;;8.80
19040;BMP180;9652;49.014;12.052;2023-03-29T08:18:51;98151.00;;;8.80
19040;BMP180;9652;49.014;12.052;2023-03-29T08:21:21;98133.00;;;8.90
19040;BMP180;9652;49.014;12.052;2023-03-29T08:23:49;98129.00;;;9.00
19040;BMP180;9652;49.014;12.052;2023-03-29T08:26:26;98150.00;;;9.10
19040;BMP180;9652;49.014;12.052;2023-03-29T08:28:56;98106.00;;;9.10
19040;BMP180;9652;49.014;12.052;2023-03-29T08:31:27;98143.00;;;9.20
19040;BMP180;9652;49.014;12.052;2023-03-29T08:33:54;98118.00;;;9.30
19040;BMP180;9652;49.014;12.052;2023-03-29T08:36:38;98101.00;;;9.40
19040;BMP180;9652;49.014;12.052;2023-03-29T08:39:16;98139.00;;;9.50
19040;BMP180;9652;49.014;12.052;2023-03-29T08:42:04;98145.00;;;9.60
19040;BMP180;9652;49.014;12.052;2023-03-29T08:44:55;98146.00;;;9.70
19040;BMP180;9652;49.014;12.052;2023-03-29T08:47:37;98066.00;;;9.80
19040;BMP180;9652;49.014;12.052;2023-03-29T08:50:12;98128.00;;;9.90
19040;BMP180;9652;49.014;12.052;2023-03-29T08:52:50;98138.00;;;10.00
19040;BMP180;9652;49.014;12.052;2023-03-29T08:55:46;98140.00;;;10.10
19040;BMP180;9652;49.014;12.052;2023-03-29T08:58:51;98144.00;;;10.20
19040;BMP180;9652;49.014;12.052;2023-03-29T09:01:22;98144.00;;;10.40
19040;BMP180;9652;49.014;12.052;2023-03-29T09:04:03;98143.00;;;10.50
19040;BMP180;9652;49.014;12.052;2023-03-29T09:06:55;98116.00;;;10.60
19040;BMP180;9652;49.014;12.052;2023-03-29T09:09:32;98147.00;;;10.70
19040;BMP180;9652;49.014;12.052;2023-03-29T09:12:25;98135.00;;;10.90
19040;BMP180;9652;49.014;12.052;2023-03-29T09:15:10;98122.00;;;11.00
19040;BMP180;9652;49.014;12.052;2023-03-29T09:17:57;98137.00;;;11.00
19040;BMP180;9652;49.014;12.052;2023-03-29T09:20:42;98136.00;;;11.10
19040;BMP180;9652;49.014;12.052;2023-03-29T09:23:32;98138.00;;;11.20
19040;BMP180;9652;49.014;12.052;2023-03-29T09:26:30;98139.00;;;11.40
19040;BMP180;9652;49.014;12.052;2023-03-29T09:29:46;98122.00;;;11.50
19040;BMP180;9652;49.014;12.052;2023-03-29T09:32:22;98106.00;;;11.70
19040;BMP180;9652;49.014;12.052;2023-03-29T09:35:10;98124.00;;;11.80
19040;BMP180;9652;49.014;12.052;2023-03-29T09:37:46;98129.00;;;12.00
19040;BMP180;9652;49.014;12.052;2023-03-29T09:40:18;98112.00;;;12.10
19040;BMP180;9652;49.014;12.052;2023-03-29T09:42:57;98130.00;;;12.20
19040;BMP180;9652;49.014;12.052;2023-03-29T09:45:27;98116.00;;;12.40
19040;BMP180;9652;49.014;12.052;2023-03-29T09:47:58;98114.00;;;12.50
19040;BMP180;9652;49.014;12.052;2023-03-29T09:50:35;98092.00;;;12.60
19040;BMP180;9652;49.014;12.052;2023-03-29T09:53:08;98120.00;;;12.70
19040;BMP180;9652;49.014;12.052;2023-03-29T09:55:38;98111.00;;;12.80
19040;BMP180;9652;49.014;12.052;2023-03-29T09:58:16;98085.00;;;12.90
19040;BMP180;9652;49.014;12.052;2023-03-29T10:00:48;98114.00;;;12.90
19040;BMP180;9652;49.014;12.052;2023-03-29T10:03:18;98110.00;;;13.00
19040;BMP180;9652;49.014;12.052;2023-03-29T10:05:55;98110.00;;;13.00
19040;BMP180;9652;49.014;12.052;2023-03-29T10:08:28;98100.00;;;13.10
19040;BMP180;9652;49.014;12.052;2023-03-29T10:10:59;98124.00;;;13.20
19040;BMP180;9652;49.014;12.052;2023-03-29T10:13:29;98105.00;;;13.30
19040;BMP180;9652;49.014;12.052;2023-03-29T10:16:02;98097.00;;;13.40
19040;BMP180;9652;49.014;12.052;2023-03-29T10:18:31;98097.00;;;13.50
19040;BMP180;9652;49.014;12.052;2023-03-29T10:21:01;98093.00;;;13.70
19040;BMP180;9652;49.014;12.052;2023-03-29T10:23:36;98096.00;;;13.70
19040;BMP180;9652;49.014;12.052;2023-03-29T10:26:09;98090.00;;;13.90
19040;BMP180;9652;49.014;12.052;2023-03-29T10:28:37;98086.00;;;13.90
19040;BMP180;9652;49.014;12.052;2023-03-29T10:31:05;98088.00;;;14.00
19040;BMP180;9652;49.014;12.052;2023-03-29T10:33:34;98077.00;;;14.10
19040;BMP180;9652;49.014;12.052;2023-03-29T10:36:06;98089.00;;;14.20
19040;BMP180;9652;49.014;12.052;2023-03-29T10:38:35;98085.00;;;14.30
19040;BMP180;9652;49.014;12.052;2023-03-29T10:41:08;98090.00;;;14.40
19040;BMP180;9652;49.014;12.052;2023-03-29T10:43:38;98094.00;;;14.50
19040;BMP180;9652;49.014;12.052;2023-03-29T10:46:11;98076.00;;;14.60
19040;BMP180;9652;49.014;12.052;2023-03-29T10:48:45;98083.00;;;14.70
19040;BMP180;9652;49.014;12.052;2023-03-29T10:51:14;98067.00;;;14.80
19040;BMP180;9652;49.014;12.052;2023-03-29T10:53:42;98078.00;;;14.90
19040;BMP180;9652;49.014;12.052;2023-03-29T10:56:33;98018.00;;;14.90
19040;BMP180;9652;49.014;12.052;2023-03-29T10:59:16;98080.00;;;14.90
19040;BMP180;9652;49.014;12.052;2023-03-29T11:02:29;98076.00;;;14.90
19040;BMP180;9652;49.014;12.052;2023-03-29T11:05:22;98055.00;;;15.00
19040;BMP180;9652;49.014;12.052;2023-03-29T11:08:11;98077.00;;;15.10
19040;BMP180;9652;49.014;12.052;2023-03-29T11:10:50;98058.00;;;15.20
19040;BMP180;9652;49.014;12.052;2023-03-29T11:13:31;98055.00;;;15.30
19040;BMP180;9652;49.014;12.052;2023-03-29T11:16:11;98063.00;;;15.30
19040;BMP180;9652;49.014;12.052;2023-03-29T11:19:07;98054.00;;;15.50
19040;BMP180;9652;49.014;12.052;2023-03-29T11:21:47;98056.00;;;15.60
19040;BMP180;9652;49.014;12.052;2023-03-29T11:24:38;98050.00;;;15.60
19040;BMP180;9652;49.014;12.052;2023-03-29T11:27:24;98045.00;;;15.80
19040;BMP180;9652;49.014;12.052;2023-03-29T11:30:09;98066.00;;;15.90
19040;BMP180;9652;49.014;12.052;2023-03-29T11:32:48;98052.00;;;16.00
19040;BMP180;9652;49.014;12.052;2023-03-29T11:35:33;98052.00;;;16.00
19040;BMP180;9652;49.014;12.052;2023-03-29T11:38:15;98045.00;;;16.10
19040;BMP180;9652;49.014;12.052;2023-03-29T11:40:56;98044.00;;;16.20
19040;BMP180;9652;49.014;12.052;2023-03-29T11:43:31;98050.00;;;16.10
19040;BMP180;9652;49.014;12.052;2023-03-29T11:46:10;98034.00;;;16.20
19040;BMP180;9652;49.014;12.052;2023-03-29T11:48:44;98053.00;;;16.30
19040;BMP180;9652;49.014;12.052;2023-03-29T11:51:18;98041.00;;;16.30
19040;BMP180;9652;49.014;12.052;2023-03-29T11:54:00;98052.00;;;16.30
19040;BMP180;9652;49.014;12.052;2023-03-29T11:56:38;98053.00;;;16.30
19040;BMP180;9652;49.014;12.052;2023-03-29T11:59:14;98046.00;;;16.30
19040;BMP180;9652;49.014;12.052;2023-03-29T12:01:48;98052.00;;;16.40
19040;BMP180;9652;49.014;12.052;2023-03-29T12:04:23;98046.00;;;16.30
19040;BMP180;9652;49.014;12.052;2023-03-29T12:07:05;98025.00;;;16.30
19040;BMP180;9652;49.014;12.052;2023-03-29T12:09:40;98047.00;;;16.30
19040;BMP180;9652;49.014;12.052;2023-03-29T12:12:14;98060.00;;;16.30
19040;BMP180;9652;49.014;12.052;2023-03-29T12:14:58;98027.00;;;16.30
19040;BMP180;9652;49.014;12.052;2023-03-29T12:17:33;98034.00;;;16.20
19040;BMP180;9652;49.014;12.052;2023-03-29T12:20:12;98014.00;;;16.10
19040;BMP180;9652;49.014;12.052;2023-03-29T12:22:45;98028.00;;;15.90
19040;BMP180;9652;49.014;12.052;2023-03-29T12:25:18;97989.00;;;15.70
19040;BMP180;9652;49.014;12.052;2023-03-29T12:28:00;97943.00;;;15.60
19040;BMP180;9652;49.014;12.052;2023-03-29T12:30:47;97979.00;;;15.40
19040;BMP180;9652;49.014;12.052;2023-03-29T12:37:15;98000.00;;;15.10
19040;BMP180;9652;49.014;12.052;2023-03-29T12:40:13;98007.00;;;14.90
19040;BMP180;9652;49.014;12.052;2023-03-29T12:43:04;98012.00;;;14.90
19040;BMP180;9652;49.014;12.052;2023-03-29T12:45:53;98018.00;;;14.80
19040;BMP180;9652;49.014;12.052;2023-03-29T12:48:24;98023.00;;;14.80
19040;BMP180;9652;49.014;12.052;2023-03-29T12:50:54;98022.00;;;14.80
19040;BMP180;9652;49.014;12.052;2023-03-29T12:53:30;98004.00;;;14.70
19040;BMP180;9652;49.014;12.052;2023-03-29T12:56:14;97949.00;;;14.70
19040;BMP180;9652;49.014;12.052;2023-03-29T12:59:16;98018.00;;;14.60
19040;BMP180;9652;49.014;12.052;2023-03-29T13:02:00;98003.00;;;14.50
19040;BMP180;9652;49.014;12.052;2023-03-29T13:04:47;98028.00;;;14.40
19040;BMP180;9652;49.014;12.052;2023-03-29T13:07:28;98012.00;;;14.40
19040;BMP180;9652;49.014;12.052;2023-03-29T13:09:58;98023.00;;;14.30
19040;BMP180;9652;49.014;12.052;2023-03-29T13:12:29;97973.00;;;14.20
19040;BMP180;9652;49.014;12.052;2023-03-29T13:15:06;98001.00;;;14.20
19040;BMP180;9652;49.014;12.052;2023-03-29T13:17:45;98003.00;;;14.20
19040;BMP180;9652;49.014;12.052;2023-03-29T13:20:35;98002.00;;;14.20
19040;BMP180;9652;49.014;12.052;2023-03-29T13:23:26;98005.00;;;14.20
19040;BMP180;9652;49.014;12.052;2023-03-29T13:26:11;97997.00;;;14.20
19040;BMP180;9652;49.014;12.052;2023-03-29T13:29:12;97983.00;;;14.30
19040;BMP180;9652;49.014;12.052;2023-03-29T13:31:50;97991.00;;;14.40
19040;BMP180;9652;49.014;12.052;2023-03-29T13:34:36;97984.00;;;14.50
19040;BMP180;9652;49.014;12.052;2023-03-29T13:37:23;97987.00;;;14.60
19040;BMP180;9652;49.014;12.052;2023-03-29T13:39:53;97986.00;;;14.60
19040;BMP180;9652;49.014;12.052;2023-03-29T13:42:35;97978.00;;;14.70
19040;BMP180;9652;49.014;12.052;2023-03-29T13:45:12;97950.00;;;14.70
19040;BMP180;9652;49.014;12.052;2023-03-29T13:47:42;97974.00;;;14.80
19040;BMP180;9652;49.014;12.052;2023-03-29T13:50:17;97964.00;;;14.80
19040;BMP180;9652;49.014;12.052;2023-03-29T13:52:59;97955.00;;;14.90
19040;BMP180;9652;49.014;12.052;2023-03-29T13:55:31;97925.00;;;15.00
19040;BMP180;9652;49.014;12.052;2023-03-29T13:58:05;97963.00;;;15.10
19040;BMP180;9652;49.014;12.052;2023-03-29T14:00:43;97965.00;;;15.20
19040;BMP180;9652;49.014;12.052;2023-03-29T14:03:16;97953.00;;;15.30
19040;BMP180;9652;49.014;12.052;2023-03-29T14:05:50;97955.00;;;15.50
19040;BMP180;9652;49.014;12.052;2023-03-29T14:08:25;97945.00;;;15.60
19040;BMP180;9652;49.014;12.052;2023-03-29T14:10:54;97904.00;;;15.80
19040;BMP180;9652;49.014;12.052;2023-03-29T14:13:24;97928.00;;;15.90
19040;BMP180;9652;49.014;12.052;2023-03-29T14:15:56;97919.00;;;16.00
19040;BMP180;9652;49.014;12.052;2023-03-29T14:18:31;97951.00;;;16.10
19040;BMP180;9652;49.014;12.052;2023-03-29T14:21:00;97945.00;;;16.20
19040;BMP180;9652;49.014;12.052;2023-03-29T14:23:30;97932.00;;;16.20
19040;BMP180;9652;49.014;12.052;2023-03-29T14:26:05;97949.00;;;16.20
19040;BMP180;9652;49.014;12.052;2023-03-29T14:28:35;97950.00;;;16.20
19040;BMP180;9652;49.014;12.052;2023-03-29T14:31:03;97947.00;;;16.20
19040;BMP180;9652;49.014;12.052;2023-03-29T14:33:32;97940.00;;;16.20
19040;BMP180;9652;49.014;12.052;2023-03-29T14:36:04;97950.00;;;16.10
19040;BMP180;9652;49.014;12.052;2023-03-29T14:38:34;97946.00;;;16.10
19040;BMP180;9652;49.014;12.052;2023-03-29T14:41:02;97937.00;;;16.00
19040;BMP180;9652;49.014;12.052;2023-03-29T14:43:30;97944.00;;;16.00
19040;BMP180;9652;49.014;12.052;2023-03-29T14:46:03;97925.00;;;15.90
19040;BMP180;9652;49.014;12.052;2023-03-29T14:48:31;97948.00;;;15.90
19040;BMP180;9652;49.014;12.052;2023-03-29T14:51:00;97929.00;;;15.90
19040;BMP180;9652;49.014;12.052;2023-03-29T14:53:30;97949.00;;;15.80
19040;BMP180;9652;49.014;12.052;2023-03-29T14:55:59;97935.00;;;15.80
19040;BMP180;9652;49.014;12.052;2023-03-29T14:58:30;97930.00;;;15.70
19040;BMP180;9652;49.014;12.052;2023-03-29T15:01:04;97945.00;;;15.70
19040;BMP180;9652;49.014;12.052;2023-03-29T15:03:42;97915.00;;;15.70
19040;BMP180;9652;49.014;12.052;2023-03-29T15:06:11;97935.00;;;15.70
19040;BMP180;9652;49.014;12.052;2023-03-29T15:08:42;97937.00;;;15.60
19040;BMP180;9652;49.014;12.052;2023-03-29T15:11:13;97929.00;;;15.70
19040;BMP180;9652;49.014;12.052;2023-03-29T15:13:43;97916.00;;;15.70